createdAt,value
2022-09-01T00:01:00.628Z,13.06
2022-09-01T00:05:04.818Z,13.02
2022-09-01T00:09:11.454Z,12.86
2022-09-01T00:13:14.291Z,12.53
2022-09-01T00:17:16.477Z,12.56
2022-09-01T00:21:21.793Z,12.40
2022-09-01T00:25:25.003Z,12.12
2022-09-01T00:29:27.565Z,12.01
2022-09-01T00:33:29.961Z,11.83
2022-09-01T00:37:32.008Z,11.84
2022-09-01T00:41:42.990Z,11.83
2022-09-01T00:45:45.061Z,11.76
2022-09-01T00:49:49.668Z,11.71
2022-09-01T00:53:53.591Z,11.63
2022-09-01T00:57:57.300Z,11.43
2022-09-01T01:01:59.885Z,11.35
2022-09-01T01:06:08.562Z,11.29
2022-09-01T01:10:13.157Z,11.20
2022-09-01T01:14:17.538Z,11.02
2022-09-01T01:18:22.881Z,11.01
2022-09-01T01:23:02.639Z,10.91
2022-09-01T01:27:05.323Z,10.93
2022-09-01T01:31:13.002Z,11.03
2022-09-01T01:35:17.222Z,11.06
2022-09-01T01:39:27.229Z,11.14
2022-09-01T01:43:29.975Z,11.14
2022-09-01T01:47:32.528Z,11.19
2022-09-01T01:51:35.978Z,11.18
2022-09-01T01:55:42.023Z,11.19
2022-09-01T01:59:45.745Z,11.12
2022-09-01T02:03:48.138Z,11.17
2022-09-01T02:07:51.227Z,11.13
2022-09-01T02:11:57.511Z,11.00
2022-09-01T02:16:05.971Z,11.07
2022-09-01T02:20:09.042Z,10.93
2022-09-01T02:24:11.307Z,10.84
2022-09-01T02:28:16.258Z,10.84
2022-09-01T02:32:22.334Z,10.78
2022-09-01T02:36:26.808Z,10.74
2022-09-01T02:40:31.762Z,10.63
2022-09-01T02:44:36.246Z,10.53
2022-09-01T02:48:46.196Z,10.55
2022-09-01T02:52:52.743Z,10.46
2022-09-01T02:56:57.438Z,10.55
2022-09-01T03:01:00.057Z,10.43
2022-09-01T03:05:03.121Z,10.42
2022-09-01T03:09:09.463Z,10.09
2022-09-01T03:13:22.176Z,10.10
2022-09-01T03:17:24.646Z,9.97
2022-09-01T03:21:27.042Z,10.00
2022-09-01T03:25:30.169Z,10.01
2022-09-01T03:29:32.247Z,9.92
2022-09-01T03:33:34.668Z,9.99
2022-09-01T03:37:37.398Z,9.83
2022-09-01T03:41:39.957Z,9.78
2022-09-01T03:45:43.079Z,9.84
2022-09-01T03:49:45.955Z,9.83
2022-09-01T03:53:49.122Z,9.82
2022-09-01T03:57:53.673Z,9.80
2022-09-01T04:01:57.111Z,9.85
2022-09-01T04:06:01.315Z,9.85
2022-09-01T04:10:03.917Z,9.75
2022-09-01T04:14:06.638Z,9.77
2022-09-01T04:18:20.575Z,9.87
2022-09-01T04:22:29.377Z,10.01
2022-09-01T04:26:31.554Z,10.18
2022-09-01T04:30:33.930Z,10.30
2022-09-01T04:34:39.985Z,10.48
2022-09-01T04:38:44.252Z,10.56
2022-09-01T04:42:46.221Z,10.65
2022-09-01T04:46:50.938Z,10.73
2022-09-01T04:50:53.737Z,10.77
2022-09-01T04:55:03.965Z,10.93
2022-09-01T04:59:08.407Z,11.02
2022-09-01T05:03:11.938Z,11.05
2022-09-01T05:07:28.197Z,11.20
2022-09-01T05:11:32.136Z,11.31
2022-09-01T05:15:46.838Z,11.42
2022-09-01T05:19:51.191Z,11.53
2022-09-01T05:23:56.859Z,11.64
2022-09-01T05:27:59.185Z,11.73
2022-09-01T05:32:09.544Z,11.82
2022-09-01T05:36:18.277Z,11.98
2022-09-01T05:40:21.205Z,12.10
2022-09-01T05:44:23.710Z,12.20
2022-09-01T05:48:31.698Z,12.34
2022-09-01T05:52:36.831Z,12.47
2022-09-01T05:56:44.076Z,12.60
2022-09-01T06:00:52.135Z,12.78
2022-09-01T06:04:56.329Z,13.01
2022-09-01T06:09:03.128Z,13.21
2022-09-01T06:13:06.259Z,13.41
2022-09-01T06:17:15.938Z,13.58
2022-09-01T06:21:18.570Z,13.91
2022-09-01T06:25:21.858Z,14.01
2022-09-01T06:29:23.884Z,14.34
2022-09-01T06:33:26.329Z,14.35
2022-09-01T06:37:30.875Z,14.60
2022-09-01T06:41:39.133Z,14.98
2022-09-01T06:45:54.904Z,15.12
2022-09-01T06:49:59.410Z,15.29
2022-09-01T06:54:04.772Z,15.40
2022-09-01T06:58:13.938Z,15.57
2022-09-01T07:02:34.836Z,15.61
2022-09-01T07:12:24.246Z,15.96
2022-09-01T07:16:35.426Z,16.08
2022-09-01T07:21:02.707Z,16.18
2022-09-01T07:25:13.568Z,16.45
2022-09-01T07:29:37.236Z,16.49
2022-09-01T07:33:44.280Z,16.57
2022-09-01T07:51:39.332Z,17.22
2022-09-01T07:55:44.303Z,17.09
2022-09-01T07:59:47.426Z,16.86
2022-09-01T08:04:02.500Z,16.65
2022-09-01T08:08:18.654Z,16.70
2022-09-01T08:12:28.921Z,16.85
2022-09-01T08:16:39.351Z,17.30
2022-09-01T08:20:48.015Z,17.31
2022-09-01T08:24:59.059Z,17.52
2022-09-01T08:29:01.425Z,17.62
2022-09-01T08:33:14.121Z,17.49
2022-09-01T08:37:20.549Z,17.56
2022-09-01T08:41:48.190Z,18.16
2022-09-01T08:45:56.156Z,17.96
2022-09-01T08:50:00.570Z,17.55
2022-09-01T08:54:32.138Z,17.80
2022-09-01T08:58:35.736Z,17.59
2022-09-01T09:03:24.172Z,18.39
2022-09-01T09:07:44.445Z,18.47
2022-09-01T09:12:11.531Z,18.10
2022-09-01T09:16:23.150Z,18.16
2022-09-01T09:20:29.586Z,18.06
2022-09-01T09:24:52.548Z,18.43
2022-09-01T09:28:55.311Z,18.52
2022-09-01T09:37:31.016Z,19.00
2022-09-01T09:41:33.481Z,19.37
2022-09-01T09:45:42.551Z,19.33
2022-09-01T09:49:48.734Z,18.99
2022-09-01T09:53:51.454Z,18.91
2022-09-01T09:58:01.863Z,19.16
2022-09-01T10:02:40.927Z,19.10
2022-09-01T10:06:47.058Z,19.31
2022-09-01T10:10:58.021Z,19.68
2022-09-01T10:15:14.055Z,19.91
2022-09-01T10:19:16.759Z,19.95
2022-09-01T10:23:19.385Z,19.44
2022-09-01T10:27:26.167Z,18.80
2022-09-01T10:31:32.841Z,18.90
2022-09-01T10:35:40.660Z,19.33
2022-09-01T10:40:13.614Z,19.52
2022-09-01T10:44:20.468Z,19.97
2022-09-01T10:48:32.110Z,20.06
2022-09-01T10:52:41.880Z,20.25
2022-09-01T10:56:54.694Z,19.97
2022-09-01T11:01:41.113Z,19.90
2022-09-01T11:05:25.035Z,20.09
2022-09-01T11:09:35.808Z,20.19
2022-09-01T11:13:59.332Z,20.33
2022-09-01T11:18:03.909Z,20.54
2022-09-01T11:22:12.875Z,20.41
2022-09-01T11:26:33.336Z,20.80
2022-09-01T11:30:50.820Z,20.59
2022-09-01T11:34:55.744Z,20.88
2022-09-01T11:39:20.694Z,20.07
2022-09-01T11:43:24.483Z,19.80
2022-09-01T11:47:38.740Z,20.13
2022-09-01T11:51:48.618Z,20.56
2022-09-01T11:55:53.414Z,20.40
2022-09-01T11:59:58.456Z,19.75
2022-09-01T12:04:25.814Z,19.93
2022-09-01T12:08:32.048Z,20.01
2022-09-01T12:12:39.674Z,20.79
2022-09-01T12:16:43.225Z,21.03
2022-09-01T12:24:54.994Z,20.32
2022-09-01T12:28:57.485Z,20.35
2022-09-01T12:37:24.925Z,20.47
2022-09-01T12:41:38.943Z,20.71
2022-09-01T12:45:48.333Z,21.06
2022-09-01T12:49:52.206Z,20.96
2022-09-01T12:53:59.729Z,20.85
2022-09-01T12:58:08.108Z,20.71
2022-09-01T13:07:08.987Z,20.59
2022-09-01T13:11:18.460Z,20.65
2022-09-01T13:15:21.925Z,20.49
2022-09-01T13:19:28.834Z,20.58
2022-09-01T13:23:33.063Z,20.84
2022-09-01T13:27:35.087Z,20.94
2022-09-01T13:31:37.407Z,20.99
2022-09-01T13:35:39.774Z,20.54
2022-09-01T13:39:42.108Z,20.50
2022-09-01T13:52:14.989Z,19.78
2022-09-01T13:56:17.364Z,19.57
2022-09-01T14:00:24.736Z,19.31
2022-09-01T14:04:27.642Z,19.23
2022-09-01T14:08:30.869Z,19.06
2022-09-01T14:12:33.474Z,19.58
2022-09-01T14:16:35.566Z,20.05
2022-09-01T14:20:42.631Z,20.27
2022-09-01T14:24:44.870Z,20.64
2022-09-01T14:28:49.256Z,20.71
2022-09-01T14:32:52.675Z,20.79
2022-09-01T14:36:58.012Z,21.14
2022-09-01T14:41:00.139Z,21.16
2022-09-01T14:45:03.419Z,21.44
2022-09-01T14:49:07.878Z,21.57
2022-09-01T14:53:10.971Z,21.19
2022-09-01T14:57:36.408Z,20.91
2022-09-01T15:01:37.228Z,21.09
2022-09-01T15:05:40.407Z,20.81
2022-09-01T15:09:43.238Z,20.69
2022-09-01T15:13:47.585Z,20.94
2022-09-01T15:17:50.208Z,21.48
2022-09-01T15:21:52.288Z,21.69
2022-09-01T15:25:56.052Z,21.40
2022-09-01T15:29:58.833Z,20.51
2022-09-01T15:34:03.825Z,19.83
2022-09-01T15:38:07.638Z,20.00
2022-09-01T15:42:10.133Z,24.25
2022-09-01T15:46:15.019Z,24.64
2022-09-01T15:50:22.137Z,25.45
2022-09-01T15:54:30.328Z,26.17
2022-09-01T15:58:59.483Z,26.07
2022-09-01T16:03:01.953Z,23.70
2022-09-01T16:07:05.026Z,22.53
2022-09-01T16:11:10.523Z,20.97
2022-09-01T16:15:16.496Z,20.09
2022-09-01T16:19:43.282Z,19.56
2022-09-01T16:23:51.690Z,19.22
2022-09-01T16:27:55.587Z,19.05
2022-09-01T16:32:01.138Z,18.82
2022-09-01T16:36:11.242Z,18.62
2022-09-01T16:40:18.265Z,18.43
2022-09-01T16:44:26.084Z,18.35
2022-09-01T16:48:58.018Z,18.18
2022-09-01T16:53:01.159Z,18.00
2022-09-01T16:57:12.846Z,17.88
2022-09-01T17:01:37.303Z,17.67
2022-09-01T17:05:48.195Z,17.42
2022-09-01T17:10:19.200Z,17.23
2022-09-01T17:14:40.306Z,17.10
2022-09-01T17:18:51.589Z,16.98
2022-09-01T17:22:59.263Z,16.81
2022-09-01T17:27:09.055Z,16.69
2022-09-01T17:31:36.700Z,16.47
2022-09-01T17:35:45.369Z,16.32
2022-09-01T17:39:50.282Z,16.25
2022-09-01T17:44:18.188Z,16.16
2022-09-01T17:48:37.042Z,16.00
2022-09-01T17:52:56.675Z,15.90
2022-09-01T17:57:12.995Z,15.73
2022-09-01T18:01:28.769Z,15.57
2022-09-01T18:05:41.730Z,15.37
2022-09-01T18:09:51.454Z,15.22
2022-09-01T18:14:02.868Z,15.11
2022-09-01T18:18:27.452Z,15.10
2022-09-01T18:22:38.461Z,14.89
2022-09-01T18:26:43.769Z,14.86
2022-09-01T18:31:15.974Z,14.70
2022-09-01T18:35:34.398Z,14.58
2022-09-01T18:40:18.645Z,14.35
2022-09-01T18:44:51.017Z,14.08
2022-09-01T18:49:09.820Z,13.84
2022-09-01T18:53:17.962Z,13.65
2022-09-01T18:57:29.548Z,13.58
2022-09-01T19:01:40.902Z,13.24
2022-09-01T19:05:55.547Z,13.20
2022-09-01T19:10:07.485Z,12.99
2022-09-01T19:14:20.767Z,12.89
2022-09-01T19:18:39.804Z,12.75
2022-09-01T19:23:05.337Z,12.52
2022-09-01T19:33:13.835Z,12.35
2022-09-01T19:37:16.305Z,12.25
2022-09-01T19:41:24.573Z,12.11
2022-09-01T19:45:52.591Z,11.98
2022-09-01T19:50:15.197Z,11.81
2022-09-01T19:54:21.188Z,11.70
2022-09-01T19:58:44.369Z,11.57
2022-09-01T20:02:52.434Z,11.46
2022-09-01T20:06:59.304Z,11.32
2022-09-01T20:11:14.806Z,11.21
2022-09-01T20:15:25.625Z,11.14
2022-09-01T20:19:39.657Z,10.94
2022-09-01T20:23:54.525Z,10.92
2022-09-01T20:28:24.801Z,10.82
2022-09-01T20:32:39.577Z,10.77
2022-09-01T20:36:49.015Z,10.57
2022-09-01T20:40:51.833Z,10.44
2022-09-01T20:45:00.218Z,10.29
2022-09-01T20:49:03.462Z,10.24
2022-09-01T20:53:23.570Z,10.24
2022-09-01T20:57:47.354Z,10.15
2022-09-01T21:01:52.344Z,10.03
2022-09-01T21:06:22.201Z,10.03
2022-09-01T21:10:43.779Z,9.91
2022-09-01T21:15:00.935Z,9.80
2022-09-01T21:19:10.152Z,9.74
2022-09-01T21:23:14.855Z,9.70
2022-09-01T21:27:22.763Z,9.58
2022-09-01T21:31:25.214Z,9.63
2022-09-01T21:35:28.628Z,9.50
2022-09-01T21:39:30.715Z,9.41
2022-09-01T21:43:36.888Z,9.46
2022-09-01T21:47:41.117Z,9.38
2022-09-01T21:51:43.550Z,9.31
2022-09-01T21:55:45.647Z,9.29
2022-09-01T21:59:48.083Z,9.28
2022-09-01T22:03:50.091Z,9.37
2022-09-01T22:07:55.107Z,9.33
2022-09-01T22:11:57.510Z,9.33
2022-09-01T22:15:59.882Z,9.33
2022-09-01T22:20:04.720Z,9.28
2022-09-01T22:24:07.648Z,9.22
2022-09-01T22:28:10.716Z,9.11
2022-09-01T22:32:13.045Z,9.02
2022-09-01T22:36:27.587Z,9.00
2022-09-01T22:40:30.544Z,8.85
2022-09-01T22:44:32.933Z,8.86
2022-09-01T22:48:35.429Z,8.79
2022-09-01T22:52:38.468Z,8.71
2022-09-01T22:56:41.787Z,8.62
2022-09-01T23:00:47.971Z,8.67
2022-09-01T23:04:50.565Z,8.65
2022-09-01T23:08:52.698Z,8.60
2022-09-01T23:12:57.450Z,8.56
2022-09-01T23:17:00.460Z,8.52
2022-09-01T23:21:04.814Z,8.49
2022-09-01T23:25:07.581Z,8.49
2022-09-01T23:29:10.431Z,8.42
2022-09-01T23:33:14.585Z,8.40
2022-09-01T23:37:17.287Z,8.36
2022-09-01T23:41:31.369Z,8.33
2022-09-01T23:45:42.349Z,8.19
2022-09-01T23:49:44.441Z,8.12
2022-09-01T23:53:47.977Z,8.03
2022-09-01T23:57:50.139Z,8.14
